TAF BGSS 251026Z 2510/2518 10005KT 9999 BKN050
TEMPO 2515/2518 1200 -SN BKN010
From batch tds/tafs/production/2023/1/25/h10_m29_tafs.cache.xml
Issued (10 days ago)
Forecasts
2510/2518 10005KT P6SM BKN5000

---
fcst_time_to: '2023-01-25T18:00:00Z'
sky_condition:
- sky_cover: BKN
  cloud_base_ft_agl: '5000'
wind_speed_kt: '5'
fcst_time_from: '2023-01-25T10:00:00Z'
wind_dir_degrees: '100'
visibility_statute_mi: '6.21'

TEMPO 2515/2518 BKN1000

---
wx_string: "-SN"
fcst_time_to: '2023-01-25T18:00:00Z'
sky_condition:
- sky_cover: BKN
  cloud_base_ft_agl: '1000'
fcst_time_from: '2023-01-25T15:00:00Z'
change_indicator: TEMPO
visibility_statute_mi: '0.75'

talk